sensor_id;sensor_type;location;lat;lon;timestamp;P1;durP1;ratioP1;P2;durP2;ratioP2
7205;SDS011;3644;53.480;10.004;2022-08-19T00:00:33;10.60;;;7.37;;
7205;SDS011;3644;53.480;10.004;2022-08-19T00:02:59;11.33;;;7.67;;
7205;SDS011;3644;53.480;10.004;2022-08-19T00:05:25;11.80;;;7.30;;
7205;SDS011;3644;53.480;10.004;2022-08-19T00:07:50;12.30;;;7.97;;
7205;SDS011;3644;53.480;10.004;2022-08-19T00:10:17;14.00;;;8.27;;
7205;SDS011;3644;53.480;10.004;2022-08-19T00:12:44;13.27;;;8.00;;
7205;SDS011;3644;53.480;10.004;2022-08-19T00:15:10;17.77;;;7.80;;
7205;SDS011;3644;53.480;10.004;2022-08-19T00:17:39;12.93;;;7.87;;
7205;SDS011;3644;53.480;10.004;2022-08-19T00:20:06;14.20;;;8.47;;
7205;SDS011;3644;53.480;10.004;2022-08-19T00:22:33;13.60;;;9.20;;
7205;SDS011;3644;53.480;10.004;2022-08-19T00:24:59;10.97;;;8.37;;
7205;SDS011;3644;53.480;10.004;2022-08-19T00:27:24;14.57;;;8.90;;
7205;SDS011;3644;53.480;10.004;2022-08-19T00:29:50;18.37;;;8.23;;
7205;SDS011;3644;53.480;10.004;2022-08-19T00:32:16;6.50;;;5.70;;
7205;SDS011;3644;53.480;10.004;2022-08-19T00:34:41;9.20;;;7.20;;
7205;SDS011;3644;53.480;10.004;2022-08-19T00:37:08;6.90;;;6.03;;
7205;SDS011;3644;53.480;10.004;2022-08-19T00:39:34;10.03;;;7.33;;
7205;SDS011;3644;53.480;10.004;2022-08-19T00:41:59;12.23;;;7.17;;
7205;SDS011;3644;53.480;10.004;2022-08-19T00:44:26;8.13;;;6.70;;
7205;SDS011;3644;53.480;10.004;2022-08-19T00:46:53;16.60;;;8.93;;
7205;SDS011;3644;53.480;10.004;2022-08-19T00:51:57;11.63;;;6.87;;
7205;SDS011;3644;53.480;10.004;2022-08-19T00:54:26;13.30;;;7.13;;
7205;SDS011;3644;53.480;10.004;2022-08-19T00:56:52;7.90;;;7.10;;
7205;SDS011;3644;53.480;10.004;2022-08-19T00:59:18;11.07;;;5.90;;
7205;SDS011;3644;53.480;10.004;2022-08-19T01:01:44;13.30;;;7.20;;
7205;SDS011;3644;53.480;10.004;2022-08-19T01:04:11;8.77;;;7.40;;
7205;SDS011;3644;53.480;10.004;2022-08-19T01:06:38;9.70;;;7.60;;
7205;SDS011;3644;53.480;10.004;2022-08-19T01:09:06;11.60;;;7.60;;
7205;SDS011;3644;53.480;10.004;2022-08-19T01:11:33;8.80;;;7.20;;
7205;SDS011;3644;53.480;10.004;2022-08-19T01:14:01;10.87;;;7.77;;
7205;SDS011;3644;53.480;10.004;2022-08-19T01:16:28;11.23;;;8.80;;
7205;SDS011;3644;53.480;10.004;2022-08-19T01:18:54;14.97;;;8.50;;
7205;SDS011;3644;53.480;10.004;2022-08-19T01:21:40;19.53;;;9.03;;
7205;SDS011;3644;53.480;10.004;2022-08-19T01:24:11;11.70;;;8.33;;
7205;SDS011;3644;53.480;10.004;2022-08-19T01:26:41;16.20;;;7.67;;
7205;SDS011;3644;53.480;10.004;2022-08-19T01:29:09;16.23;;;9.70;;
7205;SDS011;3644;53.480;10.004;2022-08-19T01:31:35;20.17;;;8.20;;
7205;SDS011;3644;53.480;10.004;2022-08-19T01:34:02;18.33;;;10.10;;
7205;SDS011;3644;53.480;10.004;2022-08-19T01:36:42;12.17;;;8.50;;
7205;SDS011;3644;53.480;10.004;2022-08-19T01:39:11;18.07;;;9.93;;
7205;SDS011;3644;53.480;10.004;2022-08-19T01:41:39;15.90;;;9.40;;
7205;SDS011;3644;53.480;10.004;2022-08-19T01:44:05;20.93;;;9.50;;
7205;SDS011;3644;53.480;10.004;2022-08-19T01:46:32;18.10;;;8.37;;
7205;SDS011;3644;53.480;10.004;2022-08-19T01:48:58;16.90;;;9.97;;
7205;SDS011;3644;53.480;10.004;2022-08-19T01:51:23;12.57;;;9.23;;
7205;SDS011;3644;53.480;10.004;2022-08-19T01:53:49;13.93;;;9.13;;
7205;SDS011;3644;53.480;10.004;2022-08-19T01:56:16;12.40;;;9.07;;
7205;SDS011;3644;53.480;10.004;2022-08-19T01:58:44;14.10;;;9.40;;
7205;SDS011;3644;53.480;10.004;2022-08-19T02:01:17;12.37;;;9.13;;
7205;SDS011;3644;53.480;10.004;2022-08-19T02:03:42;20.93;;;10.00;;
7205;SDS011;3644;53.480;10.004;2022-08-19T02:06:08;15.20;;;8.40;;
7205;SDS011;3644;53.480;10.004;2022-08-19T02:08:35;15.17;;;9.33;;
7205;SDS011;3644;53.480;10.004;2022-08-19T02:11:03;13.97;;;9.03;;
7205;SDS011;3644;53.480;10.004;2022-08-19T02:13:29;12.13;;;8.03;;
7205;SDS011;3644;53.480;10.004;2022-08-19T02:15:54;12.80;;;8.73;;
7205;SDS011;3644;53.480;10.004;2022-08-19T02:18:20;13.13;;;8.20;;
7205;SDS011;3644;53.480;10.004;2022-08-19T02:20:46;11.30;;;7.80;;
7205;SDS011;3644;53.480;10.004;2022-08-19T02:23:15;16.33;;;8.60;;
7205;SDS011;3644;53.480;10.004;2022-08-19T02:25:42;12.50;;;8.20;;
7205;SDS011;3644;53.480;10.004;2022-08-19T02:28:13;14.53;;;8.37;;
7205;SDS011;3644;53.480;10.004;2022-08-19T02:30:40;13.67;;;8.57;;
7205;SDS011;3644;53.480;10.004;2022-08-19T02:33:07;12.33;;;8.63;;
7205;SDS011;3644;53.480;10.004;2022-08-19T02:35:32;14.67;;;8.80;;
7205;SDS011;3644;53.480;10.004;2022-08-19T02:37:58;15.87;;;9.13;;
7205;SDS011;3644;53.480;10.004;2022-08-19T02:40:47;16.93;;;8.47;;
7205;SDS011;3644;53.480;10.004;2022-08-19T02:43:16;19.60;;;11.57;;
7205;SDS011;3644;53.480;10.004;2022-08-19T02:45:42;17.97;;;9.13;;
7205;SDS011;3644;53.480;10.004;2022-08-19T02:48:07;19.73;;;11.00;;
7205;SDS011;3644;53.480;10.004;2022-08-19T02:50:37;20.63;;;11.17;;
7205;SDS011;3644;53.480;10.004;2022-08-19T02:53:03;21.97;;;10.63;;
7205;SDS011;3644;53.480;10.004;2022-08-19T02:55:29;19.30;;;11.87;;
7205;SDS011;3644;53.480;10.004;2022-08-19T02:57:54;25.70;;;14.00;;
7205;SDS011;3644;53.480;10.004;2022-08-19T03:00:21;28.57;;;14.07;;
7205;SDS011;3644;53.480;10.004;2022-08-19T03:02:49;18.80;;;13.37;;
7205;SDS011;3644;53.480;10.004;2022-08-19T03:05:15;21.10;;;15.97;;
7205;SDS011;3644;53.480;10.004;2022-08-19T03:07:41;32.87;;;17.30;;
7205;SDS011;3644;53.480;10.004;2022-08-19T03:10:06;43.17;;;16.80;;
7205;SDS011;3644;53.480;10.004;2022-08-19T03:12:35;26.27;;;15.87;;
7205;SDS011;3644;53.480;10.004;2022-08-19T03:15:02;31.43;;;17.83;;
7205;SDS011;3644;53.480;10.004;2022-08-19T03:17:30;26.03;;;17.03;;
7205;SDS011;3644;53.480;10.004;2022-08-19T03:19:55;27.07;;;18.23;;
7205;SDS011;3644;53.480;10.004;2022-08-19T03:22:21;25.50;;;17.30;;
7205;SDS011;3644;53.480;10.004;2022-08-19T03:24:46;27.13;;;18.57;;
7205;SDS011;3644;53.480;10.004;2022-08-19T03:27:12;29.70;;;20.30;;
7205;SDS011;3644;53.480;10.004;2022-08-19T03:29:39;34.53;;;20.90;;
7205;SDS011;3644;53.480;10.004;2022-08-19T03:32:05;35.20;;;20.83;;
7205;SDS011;3644;53.480;10.004;2022-08-19T03:34:31;43.80;;;19.77;;
7205;SDS011;3644;53.480;10.004;2022-08-19T03:37:02;33.60;;;18.60;;
7205;SDS011;3644;53.480;10.004;2022-08-19T03:39:33;26.33;;;16.07;;
7205;SDS011;3644;53.480;10.004;2022-08-19T03:42:00;30.47;;;17.27;;
7205;SDS011;3644;53.480;10.004;2022-08-19T03:44:27;22.23;;;14.80;;
7205;SDS011;3644;53.480;10.004;2022-08-19T03:46:55;21.90;;;15.77;;
7205;SDS011;3644;53.480;10.004;2022-08-19T03:49:23;24.40;;;14.53;;
7205;SDS011;3644;53.480;10.004;2022-08-19T03:51:50;19.93;;;13.93;;
7205;SDS011;3644;53.480;10.004;2022-08-19T03:54:18;25.13;;;14.77;;
7205;SDS011;3644;53.480;10.004;2022-08-19T03:56:46;19.90;;;13.90;;
7205;SDS011;3644;53.480;10.004;2022-08-19T03:59:14;27.27;;;15.40;;
7205;SDS011;3644;53.480;10.004;2022-08-19T04:01:45;26.73;;;15.87;;
7205;SDS011;3644;53.480;10.004;2022-08-19T04:04:11;38.33;;;17.80;;
7205;SDS011;3644;53.480;10.004;2022-08-19T04:06:37;28.93;;;17.00;;
7205;SDS011;3644;53.480;10.004;2022-08-19T04:09:04;34.97;;;21.93;;
7205;SDS011;3644;53.480;10.004;2022-08-19T04:11:37;38.53;;;20.20;;
7205;SDS011;3644;53.480;10.004;2022-08-19T04:14:06;36.00;;;20.23;;
7205;SDS011;3644;53.480;10.004;2022-08-19T04:16:33;36.43;;;20.03;;
7205;SDS011;3644;53.480;10.004;2022-08-19T04:18:59;42.33;;;20.17;;
7205;SDS011;3644;53.480;10.004;2022-08-19T04:21:26;38.90;;;20.23;;
7205;SDS011;3644;53.480;10.004;2022-08-19T04:23:53;44.83;;;20.83;;
7205;SDS011;3644;53.480;10.004;2022-08-19T04:26:21;43.17;;;22.10;;
7205;SDS011;3644;53.480;10.004;2022-08-19T04:28:57;33.33;;;19.97;;
7205;SDS011;3644;53.480;10.004;2022-08-19T04:31:25;41.70;;;22.37;;
7205;SDS011;3644;53.480;10.004;2022-08-19T04:33:53;40.53;;;22.03;;
7205;SDS011;3644;53.480;10.004;2022-08-19T04:36:22;45.30;;;23.70;;
7205;SDS011;3644;53.480;10.004;2022-08-19T04:38:52;56.23;;;28.93;;
7205;SDS011;3644;53.480;10.004;2022-08-19T04:41:19;49.47;;;29.67;;
7205;SDS011;3644;53.480;10.004;2022-08-19T04:44:04;59.43;;;29.70;;
7205;SDS011;3644;53.480;10.004;2022-08-19T04:46:30;51.33;;;27.47;;
7205;SDS011;3644;53.480;10.004;2022-08-19T04:48:57;46.63;;;28.37;;
7205;SDS011;3644;53.480;10.004;2022-08-19T04:51:24;43.93;;;27.43;;
7205;SDS011;3644;53.480;10.004;2022-08-19T04:53:50;44.37;;;27.90;;
7205;SDS011;3644;53.480;10.004;2022-08-19T04:56:17;46.83;;;29.03;;
7205;SDS011;3644;53.480;10.004;2022-08-19T04:58:47;46.53;;;26.20;;
7205;SDS011;3644;53.480;10.004;2022-08-19T05:01:19;41.93;;;26.20;;
7205;SDS011;3644;53.480;10.004;2022-08-19T05:03:48;48.03;;;28.60;;
7205;SDS011;3644;53.480;10.004;2022-08-19T05:06:15;56.23;;;28.90;;
7205;SDS011;3644;53.480;10.004;2022-08-19T05:08:42;50.30;;;29.10;;
7205;SDS011;3644;53.480;10.004;2022-08-19T05:13:37;50.33;;;30.27;;
7205;SDS011;3644;53.480;10.004;2022-08-19T05:16:03;49.93;;;28.90;;
7205;SDS011;3644;53.480;10.004;2022-08-19T05:18:29;51.73;;;30.97;;
7205;SDS011;3644;53.480;10.004;2022-08-19T05:21:14;58.73;;;30.00;;
7205;SDS011;3644;53.480;10.004;2022-08-19T05:24:00;49.63;;;29.70;;
7205;SDS011;3644;53.480;10.004;2022-08-19T05:26:26;51.27;;;31.63;;
7205;SDS011;3644;53.480;10.004;2022-08-19T05:28:52;54.83;;;29.50;;
7205;SDS011;3644;53.480;10.004;2022-08-19T05:31:18;54.83;;;29.30;;
7205;SDS011;3644;53.480;10.004;2022-08-19T05:33:44;46.53;;;28.27;;
7205;SDS011;3644;53.480;10.004;2022-08-19T05:36:10;44.57;;;28.57;;
7205;SDS011;3644;53.480;10.004;2022-08-19T05:38:36;48.33;;;27.47;;
7205;SDS011;3644;53.480;10.004;2022-08-19T05:41:08;44.87;;;28.50;;
7205;SDS011;3644;53.480;10.004;2022-08-19T05:43:35;45.40;;;27.43;;
7205;SDS011;3644;53.480;10.004;2022-08-19T05:46:02;51.63;;;29.30;;
7205;SDS011;3644;53.480;10.004;2022-08-19T05:48:29;41.33;;;26.67;;
7205;SDS011;3644;53.480;10.004;2022-08-19T05:50:56;36.73;;;26.53;;
7205;SDS011;3644;53.480;10.004;2022-08-19T05:53:24;54.80;;;26.90;;
7205;SDS011;3644;53.480;10.004;2022-08-19T05:55:50;40.07;;;26.67;;
7205;SDS011;3644;53.480;10.004;2022-08-19T05:58:16;40.63;;;25.53;;
7205;SDS011;3644;53.480;10.004;2022-08-19T06:00:42;40.40;;;25.80;;
7205;SDS011;3644;53.480;10.004;2022-08-19T06:03:08;45.33;;;25.30;;
7205;SDS011;3644;53.480;10.004;2022-08-19T06:05:35;52.00;;;27.87;;
7205;SDS011;3644;53.480;10.004;2022-08-19T06:08:00;49.77;;;29.90;;
7205;SDS011;3644;53.480;10.004;2022-08-19T06:10:26;43.43;;;26.57;;
7205;SDS011;3644;53.480;10.004;2022-08-19T06:12:52;36.57;;;27.00;;
7205;SDS011;3644;53.480;10.004;2022-08-19T06:15:18;56.03;;;27.60;;
7205;SDS011;3644;53.480;10.004;2022-08-19T06:17:43;41.40;;;26.83;;
7205;SDS011;3644;53.480;10.004;2022-08-19T06:20:10;36.87;;;26.97;;
7205;SDS011;3644;53.480;10.004;2022-08-19T06:22:39;37.13;;;26.73;;
7205;SDS011;3644;53.480;10.004;2022-08-19T06:25:06;42.33;;;26.77;;
7205;SDS011;3644;53.480;10.004;2022-08-19T06:27:34;46.63;;;26.80;;
7205;SDS011;3644;53.480;10.004;2022-08-19T06:29:59;40.13;;;25.10;;
7205;SDS011;3644;53.480;10.004;2022-08-19T06:32:26;38.27;;;24.53;;
7205;SDS011;3644;53.480;10.004;2022-08-19T06:34:51;43.17;;;25.57;;
7205;SDS011;3644;53.480;10.004;2022-08-19T06:37:17;44.37;;;25.10;;
7205;SDS011;3644;53.480;10.004;2022-08-19T06:39:43;54.90;;;25.00;;
7205;SDS011;3644;53.480;10.004;2022-08-19T06:42:09;35.43;;;22.53;;
7205;SDS011;3644;53.480;10.004;2022-08-19T06:44:38;44.70;;;26.90;;
7205;SDS011;3644;53.480;10.004;2022-08-19T06:47:07;42.90;;;25.23;;
7205;SDS011;3644;53.480;10.004;2022-08-19T06:49:34;47.70;;;24.97;;
7205;SDS011;3644;53.480;10.004;2022-08-19T06:52:00;34.70;;;22.43;;
7205;SDS011;3644;53.480;10.004;2022-08-19T06:54:27;45.70;;;23.80;;
7205;SDS011;3644;53.480;10.004;2022-08-19T06:56:54;38.37;;;25.00;;
7205;SDS011;3644;53.480;10.004;2022-08-19T06:59:22;39.30;;;22.00;;
7205;SDS011;3644;53.480;10.004;2022-08-19T07:01:53;38.60;;;21.40;;
7205;SDS011;3644;53.480;10.004;2022-08-19T07:04:22;33.77;;;20.87;;
7205;SDS011;3644;53.480;10.004;2022-08-19T07:06:49;39.40;;;21.93;;
7205;SDS011;3644;53.480;10.004;2022-08-19T07:09:21;41.43;;;20.40;;
7205;SDS011;3644;53.480;10.004;2022-08-19T07:11:47;37.33;;;19.30;;
7205;SDS011;3644;53.480;10.004;2022-08-19T07:14:16;41.53;;;22.77;;
7205;SDS011;3644;53.480;10.004;2022-08-19T07:16:43;49.77;;;20.90;;
7205;SDS011;3644;53.480;10.004;2022-08-19T07:19:10;43.13;;;22.13;;
7205;SDS011;3644;53.480;10.004;2022-08-19T07:21:36;38.90;;;20.10;;
7205;SDS011;3644;53.480;10.004;2022-08-19T07:24:02;34.87;;;19.13;;
7205;SDS011;3644;53.480;10.004;2022-08-19T07:26:29;38.60;;;16.93;;
7205;SDS011;3644;53.480;10.004;2022-08-19T07:28:57;30.73;;;17.10;;
7205;SDS011;3644;53.480;10.004;2022-08-19T07:31:25;40.43;;;18.13;;
7205;SDS011;3644;53.480;10.004;2022-08-19T07:33:53;26.20;;;15.33;;
7205;SDS011;3644;53.480;10.004;2022-08-19T07:36:24;31.90;;;15.77;;
7205;SDS011;3644;53.480;10.004;2022-08-19T07:38:55;23.73;;;14.20;;
7205;SDS011;3644;53.480;10.004;2022-08-19T07:41:21;22.93;;;13.13;;
7205;SDS011;3644;53.480;10.004;2022-08-19T07:43:49;26.87;;;13.73;;
7205;SDS011;3644;53.480;10.004;2022-08-19T07:46:16;18.43;;;11.40;;
7205;SDS011;3644;53.480;10.004;2022-08-19T07:48:42;22.93;;;12.50;;
7205;SDS011;3644;53.480;10.004;2022-08-19T07:51:11;22.93;;;11.23;;
7205;SDS011;3644;53.480;10.004;2022-08-19T07:53:38;17.40;;;10.50;;
7205;SDS011;3644;53.480;10.004;2022-08-19T07:56:04;15.93;;;9.50;;
7205;SDS011;3644;53.480;10.004;2022-08-19T07:58:31;14.50;;;9.33;;
7205;SDS011;3644;53.480;10.004;2022-08-19T08:01:00;23.23;;;10.80;;
7205;SDS011;3644;53.480;10.004;2022-08-19T08:03:27;25.07;;;10.60;;
7205;SDS011;3644;53.480;10.004;2022-08-19T08:06:13;15.47;;;8.80;;
7205;SDS011;3644;53.480;10.004;2022-08-19T08:08:59;17.57;;;10.80;;
7205;SDS011;3644;53.480;10.004;2022-08-19T08:11:41;12.20;;;8.47;;
7205;SDS011;3644;53.480;10.004;2022-08-19T08:14:14;17.10;;;9.70;;
7205;SDS011;3644;53.480;10.004;2022-08-19T08:16:48;15.60;;;9.73;;
7205;SDS011;3644;53.480;10.004;2022-08-19T08:19:16;11.70;;;9.07;;
7205;SDS011;3644;53.480;10.004;2022-08-19T08:21:44;14.97;;;8.97;;
7205;SDS011;3644;53.480;10.004;2022-08-19T08:24:10;14.70;;;10.43;;
7205;SDS011;3644;53.480;10.004;2022-08-19T08:26:37;16.23;;;8.67;;
7205;SDS011;3644;53.480;10.004;2022-08-19T08:29:03;13.97;;;10.20;;
7205;SDS011;3644;53.480;10.004;2022-08-19T08:31:29;18.23;;;10.70;;
7205;SDS011;3644;53.480;10.004;2022-08-19T08:33:55;23.17;;;10.73;;
7205;SDS011;3644;53.480;10.004;2022-08-19T08:36:20;12.87;;;10.00;;
7205;SDS011;3644;53.480;10.004;2022-08-19T08:38:46;16.53;;;9.23;;
7205;SDS011;3644;53.480;10.004;2022-08-19T08:41:22;19.10;;;12.10;;
7205;SDS011;3644;53.480;10.004;2022-08-19T08:44:02;20.63;;;11.30;;
7205;SDS011;3644;53.480;10.004;2022-08-19T08:46:42;15.40;;;10.43;;
7205;SDS011;3644;53.480;10.004;2022-08-19T08:49:20;11.57;;;8.90;;
7205;SDS011;3644;53.480;10.004;2022-08-19T08:51:51;21.73;;;10.60;;
7205;SDS011;3644;53.480;10.004;2022-08-19T08:54:34;20.90;;;10.67;;
7205;SDS011;3644;53.480;10.004;2022-08-19T08:57:04;15.50;;;11.40;;
7205;SDS011;3644;53.480;10.004;2022-08-19T08:59:39;16.43;;;12.47;;
7205;SDS011;3644;53.480;10.004;2022-08-19T09:02:06;19.00;;;11.97;;
7205;SDS011;3644;53.480;10.004;2022-08-19T09:04:36;19.30;;;12.20;;
7205;SDS011;3644;53.480;10.004;2022-08-19T09:10:05;23.67;;;12.83;;
7205;SDS011;3644;53.480;10.004;2022-08-19T09:12:45;18.80;;;13.20;;
7205;SDS011;3644;53.480;10.004;2022-08-19T09:15:34;18.77;;;12.13;;
7205;SDS011;3644;53.480;10.004;2022-08-19T09:18:05;30.53;;;15.53;;
7205;SDS011;3644;53.480;10.004;2022-08-19T09:20:33;27.03;;;14.50;;
7205;SDS011;3644;53.480;10.004;2022-08-19T09:22:58;23.60;;;14.47;;
7205;SDS011;3644;53.480;10.004;2022-08-19T09:25:24;20.27;;;13.03;;
7205;SDS011;3644;53.480;10.004;2022-08-19T09:27:51;21.30;;;13.80;;
7205;SDS011;3644;53.480;10.004;2022-08-19T09:30:25;22.83;;;12.73;;
7205;SDS011;3644;53.480;10.004;2022-08-19T09:32:51;35.30;;;13.70;;
7205;SDS011;3644;53.480;10.004;2022-08-19T09:35:18;21.77;;;15.03;;
7205;SDS011;3644;53.480;10.004;2022-08-19T09:37:47;23.43;;;14.67;;
7205;SDS011;3644;53.480;10.004;2022-08-19T09:40:12;30.50;;;17.43;;
7205;SDS011;3644;53.480;10.004;2022-08-19T09:42:38;34.10;;;18.87;;
7205;SDS011;3644;53.480;10.004;2022-08-19T09:45:03;30.30;;;17.97;;
7205;SDS011;3644;53.480;10.004;2022-08-19T09:47:29;29.00;;;18.23;;
7205;SDS011;3644;53.480;10.004;2022-08-19T09:49:55;35.10;;;18.93;;
7205;SDS011;3644;53.480;10.004;2022-08-19T09:52:20;42.40;;;20.50;;
7205;SDS011;3644;53.480;10.004;2022-08-19T09:54:46;34.43;;;17.50;;
7205;SDS011;3644;53.480;10.004;2022-08-19T09:57:12;31.10;;;19.50;;
7205;SDS011;3644;53.480;10.004;2022-08-19T09:59:38;25.33;;;17.57;;
7205;SDS011;3644;53.480;10.004;2022-08-19T10:02:04;34.03;;;19.43;;
7205;SDS011;3644;53.480;10.004;2022-08-19T10:04:30;34.47;;;19.50;;
7205;SDS011;3644;53.480;10.004;2022-08-19T10:07:14;36.33;;;18.30;;
7205;SDS011;3644;53.480;10.004;2022-08-19T10:09:40;40.53;;;19.37;;
7205;SDS011;3644;53.480;10.004;2022-08-19T10:12:06;25.27;;;18.73;;
7205;SDS011;3644;53.480;10.004;2022-08-19T10:14:32;33.60;;;20.07;;
7205;SDS011;3644;53.480;10.004;2022-08-19T10:16:58;36.40;;;19.73;;
7205;SDS011;3644;53.480;10.004;2022-08-19T10:19:25;28.20;;;17.80;;
7205;SDS011;3644;53.480;10.004;2022-08-19T10:21:51;46.93;;;22.23;;
7205;SDS011;3644;53.480;10.004;2022-08-19T10:24:17;48.80;;;23.10;;
7205;SDS011;3644;53.480;10.004;2022-08-19T10:26:42;38.97;;;22.77;;
7205;SDS011;3644;53.480;10.004;2022-08-19T10:29:11;42.13;;;21.90;;
7205;SDS011;3644;53.480;10.004;2022-08-19T10:31:37;32.60;;;19.53;;
7205;SDS011;3644;53.480;10.004;2022-08-19T10:34:03;34.83;;;21.83;;
7205;SDS011;3644;53.480;10.004;2022-08-19T10:36:30;35.40;;;23.90;;
7205;SDS011;3644;53.480;10.004;2022-08-19T10:38:59;41.17;;;23.73;;
7205;SDS011;3644;53.480;10.004;2022-08-19T10:41:30;38.27;;;23.97;;
7205;SDS011;3644;53.480;10.004;2022-08-19T10:43:59;32.30;;;22.17;;
7205;SDS011;3644;53.480;10.004;2022-08-19T10:46:30;31.80;;;21.63;;
7205;SDS011;3644;53.480;10.004;2022-08-19T10:48:57;44.03;;;23.93;;
7205;SDS011;3644;53.480;10.004;2022-08-19T10:51:23;30.77;;;21.93;;
7205;SDS011;3644;53.480;10.004;2022-08-19T10:54:16;48.03;;;24.73;;
7205;SDS011;3644;53.480;10.004;2022-08-19T10:56:42;38.70;;;24.27;;
7205;SDS011;3644;53.480;10.004;2022-08-19T10:59:21;36.27;;;22.50;;
7205;SDS011;3644;53.480;10.004;2022-08-19T11:01:49;34.93;;;22.53;;
7205;SDS011;3644;53.480;10.004;2022-08-19T11:04:16;29.97;;;21.67;;
7205;SDS011;3644;53.480;10.004;2022-08-19T11:06:43;32.73;;;21.57;;
7205;SDS011;3644;53.480;10.004;2022-08-19T11:09:12;29.63;;;19.53;;
7205;SDS011;3644;53.480;10.004;2022-08-19T11:11:40;34.97;;;20.73;;
7205;SDS011;3644;53.480;10.004;2022-08-19T11:14:07;37.27;;;24.30;;
7205;SDS011;3644;53.480;10.004;2022-08-19T11:16:34;34.87;;;19.90;;
7205;SDS011;3644;53.480;10.004;2022-08-19T11:19:00;36.10;;;21.10;;
7205;SDS011;3644;53.480;10.004;2022-08-19T11:21:29;36.23;;;21.87;;
7205;SDS011;3644;53.480;10.004;2022-08-19T11:23:58;32.17;;;22.33;;
7205;SDS011;3644;53.480;10.004;2022-08-19T11:26:26;23.27;;;18.80;;
7205;SDS011;3644;53.480;10.004;2022-08-19T11:28:53;35.63;;;22.93;;
7205;SDS011;3644;53.480;10.004;2022-08-19T11:31:23;26.73;;;18.73;;
7205;SDS011;3644;53.480;10.004;2022-08-19T11:33:50;31.27;;;20.10;;
7205;SDS011;3644;53.480;10.004;2022-08-19T11:36:17;29.57;;;20.77;;
7205;SDS011;3644;53.480;10.004;2022-08-19T11:38:44;31.47;;;20.13;;
7205;SDS011;3644;53.480;10.004;2022-08-19T11:41:10;33.27;;;22.73;;
7205;SDS011;3644;53.480;10.004;2022-08-19T11:43:36;31.60;;;21.87;;
7205;SDS011;3644;53.480;10.004;2022-08-19T11:46:06;29.13;;;19.80;;
7205;SDS011;3644;53.480;10.004;2022-08-19T11:48:32;40.33;;;20.87;;
7205;SDS011;3644;53.480;10.004;2022-08-19T11:50:59;30.77;;;21.10;;
7205;SDS011;3644;53.480;10.004;2022-08-19T11:53:30;36.47;;;21.87;;
7205;SDS011;3644;53.480;10.004;2022-08-19T11:55:55;30.27;;;19.63;;
7205;SDS011;3644;53.480;10.004;2022-08-19T11:58:21;27.80;;;21.37;;
7205;SDS011;3644;53.480;10.004;2022-08-19T12:00:47;34.63;;;23.67;;
7205;SDS011;3644;53.480;10.004;2022-08-19T12:03:13;39.37;;;29.40;;
7205;SDS011;3644;53.480;10.004;2022-08-19T12:05:39;32.37;;;24.60;;
7205;SDS011;3644;53.480;10.004;2022-08-19T12:08:05;28.87;;;22.77;;
7205;SDS011;3644;53.480;10.004;2022-08-19T12:10:31;30.50;;;22.07;;
7205;SDS011;3644;53.480;10.004;2022-08-19T12:12:57;26.27;;;18.93;;
7205;SDS011;3644;53.480;10.004;2022-08-19T12:15:23;26.23;;;19.50;;
7205;SDS011;3644;53.480;10.004;2022-08-19T12:17:48;25.57;;;19.33;;
7205;SDS011;3644;53.480;10.004;2022-08-19T12:20:15;28.97;;;20.20;;
7205;SDS011;3644;53.480;10.004;2022-08-19T12:22:42;32.27;;;19.17;;
7205;SDS011;3644;53.480;10.004;2022-08-19T12:25:11;24.83;;;18.40;;
7205;SDS011;3644;53.480;10.004;2022-08-19T12:27:37;26.80;;;18.30;;
7205;SDS011;3644;53.480;10.004;2022-08-19T12:30:05;28.37;;;18.07;;
7205;SDS011;3644;53.480;10.004;2022-08-19T12:32:32;24.70;;;18.97;;
7205;SDS011;3644;53.480;10.004;2022-08-19T12:34:58;25.13;;;19.67;;
7205;SDS011;3644;53.480;10.004;2022-08-19T12:37:24;31.93;;;20.27;;
7205;SDS011;3644;53.480;10.004;2022-08-19T12:39:49;28.23;;;19.77;;
7205;SDS011;3644;53.480;10.004;2022-08-19T12:42:15;23.50;;;18.40;;
7205;SDS011;3644;53.480;10.004;2022-08-19T12:44:41;23.67;;;18.30;;
7205;SDS011;3644;53.480;10.004;2022-08-19T12:47:08;25.90;;;18.50;;
7205;SDS011;3644;53.480;10.004;2022-08-19T12:49:36;24.70;;;19.10;;
7205;SDS011;3644;53.480;10.004;2022-08-19T12:52:04;19.13;;;16.13;;
7205;SDS011;3644;53.480;10.004;2022-08-19T12:54:30;25.50;;;15.90;;
7205;SDS011;3644;53.480;10.004;2022-08-19T12:56:57;23.80;;;16.63;;
7205;SDS011;3644;53.480;10.004;2022-08-19T12:59:24;21.50;;;15.43;;
7205;SDS011;3644;53.480;10.004;2022-08-19T13:01:50;20.00;;;15.43;;
7205;SDS011;3644;53.480;10.004;2022-08-19T13:04:15;21.53;;;16.87;;
7205;SDS011;3644;53.480;10.004;2022-08-19T13:06:41;20.90;;;16.70;;
7205;SDS011;3644;53.480;10.004;2022-08-19T13:09:07;26.07;;;18.43;;
7205;SDS011;3644;53.480;10.004;2022-08-19T13:11:34;20.37;;;15.50;;
7205;SDS011;3644;53.480;10.004;2022-08-19T13:14:00;26.37;;;16.93;;
7205;SDS011;3644;53.480;10.004;2022-08-19T13:16:27;19.00;;;15.50;;
7205;SDS011;3644;53.480;10.004;2022-08-19T13:18:54;19.70;;;15.77;;
7205;SDS011;3644;53.480;10.004;2022-08-19T13:21:21;18.13;;;14.87;;
7205;SDS011;3644;53.480;10.004;2022-08-19T13:23:49;20.07;;;15.30;;
7205;SDS011;3644;53.480;10.004;2022-08-19T13:26:15;35.80;;;17.03;;
7205;SDS011;3644;53.480;10.004;2022-08-19T13:28:41;26.73;;;18.00;;
7205;SDS011;3644;53.480;10.004;2022-08-19T13:31:27;21.73;;;17.63;;
7205;SDS011;3644;53.480;10.004;2022-08-19T13:34:18;20.60;;;17.30;;
7205;SDS011;3644;53.480;10.004;2022-08-19T13:36:45;19.37;;;17.33;;
7205;SDS011;3644;53.480;10.004;2022-08-19T13:39:11;20.13;;;15.77;;
7205;SDS011;3644;53.480;10.004;2022-08-19T13:41:40;20.83;;;15.97;;
7205;SDS011;3644;53.480;10.004;2022-08-19T13:44:12;18.67;;;15.73;;
7205;SDS011;3644;53.480;10.004;2022-08-19T13:46:38;18.60;;;14.90;;
7205;SDS011;3644;53.480;10.004;2022-08-19T13:49:04;18.40;;;15.53;;
7205;SDS011;3644;53.480;10.004;2022-08-19T13:51:30;23.47;;;14.77;;
7205;SDS011;3644;53.480;10.004;2022-08-19T13:53:55;17.57;;;15.17;;
7205;SDS011;3644;53.480;10.004;2022-08-19T13:56:21;20.40;;;16.10;;
7205;SDS011;3644;53.480;10.004;2022-08-19T13:58:46;16.47;;;14.00;;
7205;SDS011;3644;53.480;10.004;2022-08-19T14:01:12;16.30;;;14.53;;
7205;SDS011;3644;53.480;10.004;2022-08-19T14:03:43;15.63;;;14.03;;
7205;SDS011;3644;53.480;10.004;2022-08-19T14:06:09;14.50;;;12.97;;
7205;SDS011;3644;53.480;10.004;2022-08-19T14:08:35;18.27;;;14.10;;
7205;SDS011;3644;53.480;10.004;2022-08-19T14:11:04;16.07;;;13.63;;
7205;SDS011;3644;53.480;10.004;2022-08-19T14:13:29;18.27;;;14.80;;
7205;SDS011;3644;53.480;10.004;2022-08-19T14:15:55;15.10;;;13.47;;
7205;SDS011;3644;53.480;10.004;2022-08-19T14:18:22;16.73;;;14.77;;
7205;SDS011;3644;53.480;10.004;2022-08-19T14:20:49;16.10;;;13.80;;
7205;SDS011;3644;53.480;10.004;2022-08-19T14:23:15;15.43;;;13.50;;
7205;SDS011;3644;53.480;10.004;2022-08-19T14:25:41;18.67;;;14.97;;
7205;SDS011;3644;53.480;10.004;2022-08-19T14:28:07;14.03;;;12.30;;
7205;SDS011;3644;53.480;10.004;2022-08-19T14:30:34;19.67;;;15.97;;
7205;SDS011;3644;53.480;10.004;2022-08-19T14:33:02;18.33;;;15.10;;
7205;SDS011;3644;53.480;10.004;2022-08-19T14:35:30;16.00;;;14.40;;
7205;SDS011;3644;53.480;10.004;2022-08-19T14:38:00;19.13;;;17.10;;
7205;SDS011;3644;53.480;10.004;2022-08-19T14:40:30;26.87;;;17.40;;
7205;SDS011;3644;53.480;10.004;2022-08-19T14:42:56;20.53;;;16.70;;
7205;SDS011;3644;53.480;10.004;2022-08-19T14:45:29;23.53;;;16.97;;
7205;SDS011;3644;53.480;10.004;2022-08-19T14:47:56;19.07;;;13.70;;
7205;SDS011;3644;53.480;10.004;2022-08-19T14:50:24;19.93;;;16.03;;